Time;durP1;ratioP1;P1;durP2;ratioP2;P2;SDS_P1;SDS_P2;PMS_P1;PMS_P2;Temp;Humidity;BMP_temperature;BMP_pressure;BME280_temperature;BME280_humidity;BME280_pressure;Samples;Min_cycle;Max_cycle;Signal;HPM_P1;HPM_P2
2021/05/06 00:33:38;;;;;;;3.13;2.93;;;6.00;99.90;;;;;;5029302;28;20191;-64
2021/05/06 00:36:04;;;;;;;3.40;3.20;;;6.00;1.00;;;;;;5028238;28;20206;-63
2021/05/06 00:38:35;;;;;;;3.70;2.90;;;6.00;99.90;;;;;;5028914;28;20194;-63
2021/05/06 00:44:01;;;;;;;3.03;2.75;;;5.80;99.90;;;;;;5029294;28;20182;-63
2021/05/06 00:54:50;;;;;;;2.95;2.75;;;5.60;1.00;;;;;;5026903;28;20198;-64
2021/05/06 01:08:01;;;;;;;3.35;3.05;;;5.30;1.00;;;;;;5022622;28;20356;-63
2021/05/06 01:13:01;;;;;;;3.53;2.92;;;5.10;99.90;;;;;;5028701;28;20186;-64
2021/05/06 01:15:27;;;;;;;3.70;3.40;;;5.00;99.90;;;;;;5028333;28;20193;-63
2021/05/06 01:17:53;;;;;;;3.50;3.20;;;4.90;99.90;;;;;;5028708;28;20190;-63
2021/05/06 01:20:19;;;;;;;4.13;3.73;;;4.80;1.00;;;;;;5032155;28;20221;-63
2021/05/06 01:22:45;;;;;;;3.90;3.60;;;4.70;1.00;;;;;;5031730;28;20201;-64
2021/05/06 01:25:12;;;;;;;4.00;3.60;;;4.60;1.00;;;;;;5032884;28;20198;-64
2021/05/06 01:32:58;;;;;;;7.78;3.85;;;4.50;1.00;;;;;;5030934;28;20242;-63
2021/05/06 01:35:36;;;;;;;5.55;3.90;;;4.50;1.00;;;;;;5032913;28;20189;-63
2021/05/06 01:43:44;;;;;;;4.88;3.92;;;4.30;1.00;;;;;;5031099;28;20197;-63
2021/05/06 01:57:37;;;;;;;4.10;3.70;;;4.60;1.00;;;;;;5025964;28;20229;-62
2021/05/06 02:00:09;;;;;;;4.00;3.47;;;4.70;1.00;;;;;;5032194;28;20182;-63
2021/05/06 02:02:35;;;;;;;4.38;3.85;;;4.80;1.00;;;;;;5030600;28;20197;-62
2021/05/06 02:05:00;;;;;;;4.00;3.60;;;4.90;1.00;;;;;;5031975;28;20205;-62
2021/05/06 02:07:26;;;;;;;3.77;3.47;;;5.00;1.00;;;;;;5030621;28;20214;-62
2021/05/06 02:09:52;;;;;;;4.60;3.30;;;5.10;1.00;;;;;;5031852;28;20186;-65
2021/05/06 02:12:18;;;;;;;3.87;3.57;;;5.20;1.00;;;;;;5030991;28;20190;-62
2021/05/06 02:14:57;;;;;;;4.68;3.72;;;5.30;1.00;;;;;;5031638;28;20186;-64
2021/05/06 02:17:23;;;;;;;3.60;3.28;;;5.50;1.00;;;;;;5030560;28;20615;-63
2021/05/06 02:19:49;;;;;;;4.17;3.77;;;5.50;99.90;;;;;;5030560;28;20222;-62
2021/05/06 02:22:19;;;;;;;3.90;3.60;;;5.50;99.90;;;;;;5030799;28;20190;-63
2021/05/06 02:24:45;;;;;;;3.50;3.20;;;5.50;1.00;;;;;;5029296;28;20955;-63
2021/05/06 02:27:11;;;;;;;3.75;3.45;;;5.50;99.90;;;;;;5045240;28;20221;-63
2021/05/06 02:29:37;;;;;;;3.80;3.30;;;5.50;1.00;;;;;;5031161;28;20213;-63
2021/05/06 02:32:03;;;;;;;4.43;4.03;;;5.50;1.00;;;;;;5030552;28;20230;-62
2021/05/06 02:34:29;;;;;;;4.00;3.70;;;5.40;1.00;;;;;;5030124;28;20194;-62
2021/05/06 02:36:54;;;;;;;4.10;3.57;;;5.40;1.00;;;;;;5031115;28;20329;-64
2021/05/06 02:39:20;;;;;;;4.20;3.80;;;5.50;1.00;;;;;;5031603;28;20572;-62
2021/05/06 02:41:46;;;;;;;5.47;3.93;;;5.50;1.00;;;;;;5030101;28;20252;-62
2021/05/06 02:44:11;;;;;;;5.23;4.10;;;5.50;1.00;;;;;;5030766;28;20194;-62
2021/05/06 02:46:37;;;;;;;4.60;4.20;;;5.50;1.00;;;;;;5030618;28;20949;-63
2021/05/06 02:49:03;;;;;;;4.90;4.40;;;5.50;1.00;;;;;;5030448;28;20186;-63
2021/05/06 02:51:33;;;;;;;5.80;4.27;;;5.50;1.00;;;;;;5027384;28;20206;-62
2021/05/06 02:53:59;;;;;;;5.82;4.18;;;5.60;1.00;;;;;;5028947;28;20221;-62
2021/05/06 03:04:10;;;;;;;4.72;4.22;;;5.90;99.90;;;;;;5029755;28;20201;-62
2021/05/06 03:06:46;;;;;;;4.30;3.90;;;5.80;99.90;;;;;;5031202;28;20179;-63
2021/05/06 03:11:49;;;;;;;4.80;4.30;;;5.80;99.90;;;;;;5030382;28;20186;-63
2021/05/06 03:24:55;;;;;;;5.63;4.43;;;5.60;1.00;;;;;;5019545;28;20193;-63
2021/05/06 03:27:25;;;;;;;5.00;3.92;;;5.70;99.90;;;;;;5045002;28;20213;-63
2021/05/06 03:30:10;;;;;;;4.80;4.30;;;5.70;99.90;;;;;;5029835;28;20213;-63
2021/05/06 03:35:27;;;;;;;4.88;4.38;;;5.70;99.90;;;;;;5029741;28;20210;-63
2021/05/06 04:19:01;;;;;;;5.00;4.60;;;5.50;1.00;;;;;;5097398;28;20210;-63
2021/05/06 04:21:42;;;;;;;5.30;4.80;;;5.40;1.00;;;;;;5090426;28;20674;-63
2021/05/06 04:27:08;;;;;;;6.63;5.80;;;5.30;1.00;;;;;;5092855;28;20254;-64
2021/05/06 04:37:31;;;;;;;5.35;4.85;;;5.40;1.00;;;;;;5086517;28;20283;-64
2021/05/06 04:40:09;;;;;;;4.70;4.30;;;5.40;1.00;;;;;;5085170;28;20192;-63
2021/05/06 04:53:29;;;;;;;5.85;5.30;;;5.40;1.00;;;;;;5080798;28;20215;-64
2021/05/06 04:53:38;;;;;;;5.68;4.97;;;5.50;1.00;;;;;;5086440;28;20204;-63
2021/05/06 04:56:21;;;;;;;6.05;5.55;;;5.50;1.00;;;;;;5093137;28;20189;-63
2021/05/06 05:04:30;;;;;;;4.90;4.50;;;5.60;1.00;;;;;;5095167;28;20268;-62
2021/05/06 05:07:19;;;;;;;4.97;4.47;;;5.60;1.00;;;;;;5089241;28;20180;-63
2021/05/06 05:10:17;;;;;;;5.85;5.22;;;5.70;1.00;;;;;;5089031;28;20184;-64
2021/05/06 05:12:56;;;;;;;5.80;5.30;;;5.80;1.00;;;;;;5086014;28;20183;-64
2021/05/06 05:21:01;;;;;;;4.90;4.20;;;6.10;99.90;;;;;;5070448;28;20212;-64
2021/05/06 05:25:59;;;;;;;4.97;3.97;;;6.90;99.90;;;;;;5075374;28;20178;-63
2021/05/06 05:28:24;;;;;;;3.50;3.20;;;7.20;1.00;;;;;;5066962;28;20190;-63
2021/05/06 05:30:50;;;;;;;4.53;3.90;;;7.50;1.00;;;;;;5071786;28;20642;-63
2021/05/06 05:33:17;;;;;;;4.47;4.10;;;7.60;99.90;;;;;;5072923;28;20255;-63
2021/05/06 05:35:54;;;;;;;4.47;3.95;;;7.60;99.90;;;;;;5071917;28;20182;-63
2021/05/06 05:43:52;;;;;;;4.80;4.35;;;7.70;1.00;;;;;;5084351;28;20690;-63
2021/05/06 05:46:47;;;;;;;4.10;3.70;;;7.60;1.00;;;;;;5080405;28;20275;-63
2021/05/06 05:56:42;;;;;;;4.40;4.00;;;7.80;99.90;;;;;;5065733;28;20191;-67
2021/05/06 05:59:08;;;;;;;4.60;4.20;;;7.90;1.00;;;;;;5063588;28;20201;-66
2021/05/06 06:01:33;;;;;;;4.50;4.10;;;8.00;99.90;;;;;;5071752;28;20235;-66
2021/05/06 06:03:59;;;;;;;4.60;4.20;;;8.20;19.80;;;;;;5076378;28;20520;-66
2021/05/06 06:06:25;;;;;;;4.60;4.20;;;8.30;1.00;;;;;;5086645;28;20218;-66
2021/05/06 06:08:51;;;;;;;4.20;3.90;;;8.40;1.00;;;;;;5088665;28;20585;-66
2021/05/06 06:11:17;;;;;;;4.30;3.90;;;8.50;1.00;;;;;;5084450;28;20458;-66
2021/05/06 06:13:44;;;;;;;4.37;4.03;;;8.60;1.00;;;;;;5078540;28;20195;-66
2021/05/06 06:16:11;;;;;;;4.60;4.17;;;8.80;1.00;;;;;;5084426;28;20433;-66
2021/05/06 06:18:47;;;;;;;4.00;3.70;;;8.90;99.90;;;;;;5071135;28;20476;-67
2021/05/06 06:23:38;;;;;;;4.30;3.90;;;9.10;99.90;;;;;;5070882;28;20415;-66
2021/05/06 06:26:04;;;;;;;7.43;4.10;;;9.10;99.90;;;;;;5074437;28;20212;-67
2021/05/06 06:33:48;;;;;;;4.77;4.23;;;9.20;77.90;;;;;;5071368;28;20529;-66
2021/05/06 06:36:15;;;;;;;4.30;3.90;;;9.30;93.50;;;;;;5076507;28;20187;-66
2021/05/06 06:38:40;;;;;;;4.60;4.30;;;9.30;1.00;;;;;;5066688;28;20433;-66
2021/05/06 06:41:09;;;;;;;5.00;3.90;;;9.30;1.00;;;;;;5078725;28;20458;-66
2021/05/06 06:43:35;;;;;;;5.30;4.37;;;9.40;1.00;;;;;;5079628;28;20620;-63
2021/05/06 06:46:01;;;;;;;4.33;4.03;;;9.50;1.00;;;;;;5077765;28;21000;-64
2021/05/06 06:48:27;;;;;;;5.40;4.20;;;9.60;1.00;;;;;;5082084;28;20422;-68
2021/05/06 06:50:53;;;;;;;4.30;4.00;;;9.60;1.00;;;;;;5073781;28;20430;-66
2021/05/06 06:53:18;;;;;;;4.50;4.07;;;9.60;1.00;;;;;;5068219;28;20268;-66
2021/05/06 06:55:44;;;;;;;4.33;3.90;;;9.60;1.00;;;;;;5072590;28;20550;-63
2021/05/06 06:58:16;;;;;;;4.10;3.80;;;9.60;1.00;;;;;;5068234;28;20272;-63
2021/05/06 07:00:43;;;;;;;3.67;3.47;;;9.60;1.00;;;;;;5069161;28;20475;-63
2021/05/06 07:03:09;;;;;;;4.93;4.50;;;9.60;1.00;;;;;;5068793;28;20420;-64
2021/05/06 07:05:35;;;;;;;4.20;3.90;;;9.60;1.00;;;;;;5069634;28;20806;-69
2021/05/06 07:08:15;;;;;;;4.50;4.10;;;9.70;1.00;;;;;;5081009;28;20185;-66
2021/05/06 07:10:43;;;;;;;4.87;4.37;;;9.70;1.00;;;;;;5070805;28;20422;-68
2021/05/06 07:13:09;;;;;;;4.03;3.73;;;9.70;1.00;;;;;;5068416;28;20438;-66
2021/05/06 07:15:34;;;;;;;4.90;4.40;;;9.80;1.00;;;;;;5072870;28;20439;-66
2021/05/06 07:18:00;;;;;;;4.43;3.80;;;9.80;1.00;;;;;;5067455;28;20205;-65
2021/05/06 07:20:26;;;;;;;3.50;3.30;;;9.90;1.00;;;;;;5068368;28;20201;-66
2021/05/06 07:22:52;;;;;;;3.57;3.30;;;9.90;1.00;;;;;;5068021;28;20184;-65
2021/05/06 07:25:18;;;;;;;4.50;4.10;;;9.90;1.00;;;;;;5067183;28;20766;-65
2021/05/06 07:27:44;;;;;;;4.20;3.90;;;10.00;1.00;;;;;;5068424;28;20414;-65
2021/05/06 07:30:10;;;;;;;4.13;3.83;;;10.10;1.00;;;;;;5068551;28;20194;-67
2021/05/06 07:32:36;;;;;;;4.40;4.10;;;10.20;1.00;;;;;;5068148;28;20203;-66
2021/05/06 07:35:02;;;;;;;3.97;3.63;;;10.20;1.00;;;;;;5068159;28;20470;-67
2021/05/06 07:37:28;;;;;;;4.07;3.77;;;10.20;1.00;;;;;;5071258;28;20414;-67
2021/05/06 07:39:53;;;;;;;4.20;3.90;;;10.30;1.00;;;;;;5068230;28;20909;-69
2021/05/06 07:42:19;;;;;;;4.00;3.70;;;10.30;1.00;;;;;;5074824;28;20267;-65
2021/05/06 07:44:44;;;;;;;4.30;4.00;;;10.40;1.00;;;;;;5070363;28;20264;-66
2021/05/06 07:47:10;;;;;;;3.67;3.37;;;10.50;1.00;;;;;;5066147;28;20598;-68
2021/05/06 07:49:37;;;;;;;4.20;3.90;;;10.60;1.00;;;;;;5074333;28;20176;-65
2021/05/06 07:52:03;;;;;;;4.03;3.73;;;10.60;1.00;;;;;;5077189;28;20427;-69
2021/05/06 07:54:28;;;;;;;3.70;3.40;;;10.70;1.00;;;;;;5075901;28;20436;-69
2021/05/06 07:56:54;;;;;;;4.20;3.90;;;10.90;1.00;;;;;;5076650;28;20434;-65
2021/05/06 07:59:19;;;;;;;4.50;4.20;;;10.90;1.00;;;;;;5066964;28;20662;-67
2021/05/06 08:01:45;;;;;;;4.40;4.00;;;11.00;1.00;;;;;;5066333;28;20691;-65
2021/05/06 08:04:11;;;;;;;3.93;3.63;;;11.10;1.00;;;;;;5067583;28;20192;-68
2021/05/06 08:06:36;;;;;;;3.70;3.50;;;11.00;1.00;;;;;;5068000;28;20177;-66
2021/05/06 08:09:03;;;;;;;3.23;3.03;;;11.10;1.00;;;;;;5068296;28;20555;-65
2021/05/06 08:11:29;;;;;;;3.90;3.70;;;11.00;99.90;;;;;;5068038;28;20356;-64
2021/05/06 08:13:54;;;;;;;3.80;3.50;;;11.00;99.90;;;;;;5068044;28;20420;-69
2021/05/06 08:16:20;;;;;;;3.80;3.50;;;10.90;99.90;;;;;;5067820;28;20204;-64
2021/05/06 08:18:45;;;;;;;3.93;3.57;;;11.00;99.90;;;;;;5068079;28;20187;-64
2021/05/06 08:21:11;;;;;;;3.30;3.10;;;11.00;99.90;;;;;;5067805;28;20228;-65
2021/05/06 08:23:37;;;;;;;4.03;3.20;;;11.00;99.90;;;;;;5067787;28;20189;-65
2021/05/06 08:26:02;;;;;;;3.13;2.97;;;11.00;99.90;;;;;;5061136;28;20187;-65
2021/05/06 08:28:28;;;;;;;3.23;2.97;;;11.00;99.90;;;;;;5067079;28;20493;-66
2021/05/06 08:30:54;;;;;;;3.50;3.20;;;11.00;99.90;;;;;;5068438;28;20157;-66
2021/05/06 08:33:19;;;;;;;3.13;2.93;;;11.00;99.90;;;;;;5066435;28;20185;-67
2021/05/06 08:35:45;;;;;;;3.40;3.20;;;11.10;99.90;;;;;;5067487;28;20191;-64
2021/05/06 08:38:10;;;;;;;3.33;3.13;;;11.40;99.90;;;;;;5068228;28;20161;-65
2021/05/06 08:40:37;;;;;;;3.60;3.40;;;11.50;99.90;;;;;;5070394;28;20316;-66
2021/05/06 08:43:07;;;;;;;3.67;3.47;;;11.50;99.90;;;;;;5064211;28;20169;-65
2021/05/06 08:45:35;;;;;;;3.77;3.37;;;11.60;99.90;;;;;;5059853;28;20438;-66
2021/05/06 08:48:03;;;;;;;3.30;3.13;;;11.70;99.90;;;;;;5090162;28;20419;-65
2021/05/06 08:50:28;;;;;;;3.50;3.30;;;12.00;99.90;;;;;;5073252;28;20449;-65
2021/05/06 08:52:55;;;;;;;3.53;3.33;;;12.10;99.90;;;;;;5089820;28;21083;-65
2021/05/06 08:55:20;;;;;;;3.00;2.90;;;12.00;99.90;;;;;;5086698;28;20211;-66
2021/05/06 08:57:48;;;;;;;3.50;3.13;;;11.90;99.90;;;;;;5065362;28;20603;-66
2021/05/06 09:00:16;;;;;;;3.27;3.07;;;11.70;99.90;;;;;;5083198;28;20671;-65
2021/05/06 09:02:48;;;;;;;3.80;3.60;;;11.40;99.90;;;;;;5074332;28;20430;-66
2021/05/06 09:05:14;;;;;;;3.90;3.60;;;11.20;99.90;;;;;;5078728;28;20453;-64
2021/05/06 09:07:44;;;;;;;3.90;3.60;;;11.40;99.90;;;;;;5075838;28;20446;-64
2021/05/06 09:10:11;;;;;;;3.47;3.20;;;12.00;99.90;;;;;;5080642;28;20219;-65
2021/05/06 09:12:38;;;;;;;3.50;3.30;;;12.50;99.90;;;;;;5072465;28;20437;-65
2021/05/06 09:15:18;;;;;;;3.97;3.67;;;13.20;99.90;;;;;;5076017;28;20559;-68
2021/05/06 09:17:44;;;;;;;3.37;3.17;;;13.90;99.90;;;;;;5073190;28;20467;-67
2021/05/06 09:20:16;;;;;;;3.70;3.40;;;14.30;99.90;;;;;;5068574;28;20430;-69
2021/05/06 09:22:45;;;;;;;4.70;4.30;;;14.50;99.90;;;;;;5071275;28;20248;-68
2021/05/06 09:25:27;;;;;;;5.20;4.70;;;14.00;99.90;;;;;;5070059;28;20416;-68
2021/05/06 09:28:02;;;;;;;4.80;4.33;;;12.80;99.90;;;;;;5069035;28;20440;-68
2021/05/06 09:30:31;;;;;;;4.77;4.47;;;11.80;99.90;;;;;;5071198;28;20464;-67
2021/05/06 09:33:06;;;;;;;5.50;5.10;;;11.60;99.90;;;;;;5070280;28;20510;-67
2021/05/06 09:35:46;;;;;;;5.10;4.70;;;11.80;99.90;;;;;;5069604;28;20488;-66
2021/05/06 09:38:34;;;;;;;4.60;3.80;;;12.20;99.90;;;;;;5069926;28;20441;-66
2021/05/06 09:41:03;;;;;;;4.60;4.30;;;12.60;99.90;;;;;;5072779;28;20458;-67
2021/05/06 09:43:38;;;;;;;4.10;3.80;;;12.90;99.90;;;;;;5073558;28;20435;-65
2021/05/06 09:46:04;;;;;;;4.07;3.77;;;13.60;99.90;;;;;;5081671;28;20424;-66
2021/05/06 09:48:30;;;;;;;3.47;3.23;;;13.90;99.90;;;;;;5076738;28;20439;-66
2021/05/06 09:51:04;;;;;;;4.00;3.80;;;13.80;99.90;;;;;;5070525;28;20506;-66
2021/05/06 09:53:32;;;;;;;3.80;3.53;;;13.40;99.90;;;;;;5070725;28;20158;-66
2021/05/06 09:56:00;;;;;;;4.33;3.93;;;13.80;99.90;;;;;;5068985;28;20493;-67
2021/05/06 09:58:31;;;;;;;4.23;3.93;;;14.60;99.90;;;;;;5069411;28;20439;-66
2021/05/06 10:00:57;;;;;;;4.00;3.80;;;15.20;99.90;;;;;;5069400;28;20607;-68
2021/05/06 10:03:30;;;;;;;3.80;3.60;;;15.60;99.90;;;;;;5069746;28;20525;-67
2021/05/06 10:05:56;;;;;;;3.83;3.53;;;15.30;99.90;;;;;;5070098;28;20392;-65
2021/05/06 10:08:34;;;;;;;4.30;4.00;;;14.50;99.90;;;;;;5069830;28;20526;-66
2021/05/06 10:11:13;;;;;;;4.10;3.80;;;13.90;99.90;;;;;;5070584;28;20202;-66
2021/05/06 10:13:40;;;;;;;3.70;3.50;;;13.40;99.90;;;;;;5068071;28;20441;-67
2021/05/06 10:16:07;;;;;;;3.57;3.37;;;13.00;99.90;;;;;;5070440;28;20424;-66
2021/05/06 10:18:34;;;;;;;4.07;3.77;;;12.70;99.90;;;;;;5069340;28;20441;-66
2021/05/06 10:21:00;;;;;;;3.83;3.53;;;12.60;99.90;;;;;;5069881;28;20467;-66
2021/05/06 10:23:26;;;;;;;3.90;3.70;;;12.50;99.90;;;;;;5068981;28;20804;-66
2021/05/06 10:25:55;;;;;;;3.87;3.57;;;12.70;99.90;;;;;;5070096;28;20536;-65
2021/05/06 10:28:23;;;;;;;4.20;3.90;;;13.50;99.90;;;;;;5069260;28;20392;-66
2021/05/06 10:30:49;;;;;;;3.43;3.23;;;14.00;99.90;;;;;;5069954;28;20412;-66
2021/05/06 10:33:20;;;;;;;4.03;3.80;;;14.40;99.90;;;;;;5069032;28;20428;-66
2021/05/06 10:35:48;;;;;;;3.80;3.60;;;14.40;99.90;;;;;;5069681;28;20963;-65
2021/05/06 10:38:14;;;;;;;3.77;3.57;;;14.50;99.90;;;;;;5069583;28;20404;-67
2021/05/06 10:40:41;;;;;;;3.57;3.37;;;14.60;99.90;;;;;;5070993;28;20495;-67
2021/05/06 10:43:28;;;;;;;4.03;3.83;;;15.10;99.90;;;;;;5075714;28;20473;-66
2021/05/06 10:46:04;;;;;;;4.30;4.00;;;15.40;99.90;;;;;;5083328;28;21059;-65
2021/05/06 10:48:58;;;;;;;3.70;3.50;;;15.30;99.90;;;;;;5082846;28;20461;-69
2021/05/06 10:51:35;;;;;;;4.13;3.70;;;14.70;99.90;;;;;;5065817;28;20943;-68
2021/05/06 10:54:27;;;;;;;3.50;3.30;;;14.40;99.90;;;;;;5072030;28;20771;-66
2021/05/06 10:56:57;;;;;;;3.70;3.40;;;14.00;99.90;;;;;;5084503;28;20435;-67
2021/05/06 10:59:27;;;;;;;4.47;4.00;;;13.70;99.90;;;;;;5085810;28;20410;-67
2021/05/06 11:01:53;;;;;;;4.27;3.97;;;13.40;99.90;;;;;;5075068;28;20533;-70
2021/05/06 11:04:32;;;;;;;3.90;3.70;;;13.30;99.90;;;;;;5088167;28;20419;-67
2021/05/06 11:07:15;;;;;;;4.07;3.87;;;13.40;99.90;;;;;;5072787;28;20419;-67
2021/05/06 11:09:44;;;;;;;3.83;3.63;;;13.60;99.90;;;;;;5073921;28;21324;-67
2021/05/06 11:12:16;;;;;;;4.27;4.07;;;13.70;99.90;;;;;;5074222;28;20444;-66
2021/05/06 11:15:03;;;;;;;3.97;3.67;;;13.80;99.90;;;;;;5083526;28;20437;-67
2021/05/06 11:17:31;;;;;;;4.10;3.80;;;14.00;99.90;;;;;;5074294;28;20437;-66
2021/05/06 11:19:58;;;;;;;3.47;3.27;;;14.20;99.90;;;;;;5089007;28;20433;-66
2021/05/06 11:22:48;;;;;;;4.43;4.13;;;14.80;99.90;;;;;;5089151;28;20457;-65
2021/05/06 11:25:38;;;;;;;3.90;3.60;;;14.70;99.90;;;;;;5081297;28;20503;-65
2021/05/06 11:28:24;;;;;;;4.10;3.70;;;14.00;99.90;;;;;;5063485;28;20441;-66
2021/05/06 11:30:52;;;;;;;4.00;3.70;;;13.40;99.90;;;;;;5084070;28;20762;-66
2021/05/06 11:33:21;;;;;;;3.60;3.40;;;12.90;99.90;;;;;;5071658;28;20445;-66
2021/05/06 11:36:16;;;;;;;3.80;3.50;;;12.80;99.90;;;;;;5059563;28;20804;-66
2021/05/06 11:38:44;;;;;;;3.50;3.30;;;12.60;99.90;;;;;;5077767;28;20465;-66
2021/05/06 11:41:12;;;;;;;3.50;3.27;;;12.70;99.90;;;;;;5066917;28;20472;-68
2021/05/06 11:43:49;;;;;;;3.80;3.60;;;12.70;99.90;;;;;;5068230;28;20504;-66
2021/05/06 11:46:22;;;;;;;3.40;3.20;;;12.70;99.90;;;;;;5063477;28;20439;-67
2021/05/06 11:48:56;;;;;;;3.80;3.60;;;12.60;99.90;;;;;;5061584;28;20416;-67
2021/05/06 11:51:33;;;;;;;3.00;2.90;;;12.60;99.90;;;;;;5052343;28;20443;-67
2021/05/06 11:54:09;;;;;;;3.10;3.00;;;12.70;99.90;;;;;;5080163;28;20447;-67
2021/05/06 11:56:57;;;;;;;3.57;3.27;;;12.70;99.90;;;;;;5067181;28;20549;-68
2021/05/06 11:59:25;;;;;;;3.87;3.57;;;13.20;99.90;;;;;;5059805;28;20509;-70
2021/05/06 12:01:51;;;;;;;3.53;3.23;;;13.40;99.90;;;;;;5067024;28;21415;-70
2021/05/06 12:04:31;;;;;;;3.47;3.20;;;13.50;99.90;;;;;;5067783;28;21292;-70
2021/05/06 12:06:57;;;;;;;3.90;3.60;;;13.30;99.90;;;;;;5067107;28;20948;-66
2021/05/06 12:09:29;;;;;;;3.83;3.63;;;13.30;99.90;;;;;;5077007;28;20427;-67
2021/05/06 12:11:55;;;;;;;3.80;3.60;;;13.20;99.90;;;;;;5075862;28;20478;-69
2021/05/06 12:14:37;;;;;;;3.00;2.80;;;13.40;99.90;;;;;;5068603;28;20512;-66
2021/05/06 12:17:04;;;;;;;3.37;3.07;;;13.60;99.90;;;;;;5067958;28;20434;-66
2021/05/06 12:19:29;;;;;;;3.67;3.47;;;12.90;99.90;;;;;;5057529;28;20487;-66
2021/05/06 12:21:57;;;;;;;3.40;3.20;;;12.60;99.90;;;;;;5070521;28;20510;-64
2021/05/06 12:24:32;;;;;;;7.80;3.63;;;12.80;99.90;;;;;;5071720;28;20591;-67
2021/05/06 12:26:59;;;;;;;3.70;3.40;;;13.10;99.90;;;;;;5073858;28;21003;-67
2021/05/06 12:29:29;;;;;;;3.40;3.20;;;13.30;99.90;;;;;;5077436;28;20439;-67
2021/05/06 12:31:55;;;;;;;3.30;3.10;;;13.20;99.90;;;;;;5071310;28;20420;-65
2021/05/06 12:34:24;;;;;;;4.10;3.80;;;13.10;99.90;;;;;;5072579;28;20505;-65
2021/05/06 12:36:55;;;;;;;3.50;3.20;;;12.90;99.90;;;;;;5079879;28;20918;-65
2021/05/06 12:39:22;;;;;;;4.17;3.77;;;12.70;99.90;;;;;;5088096;28;20442;-64
2021/05/06 12:41:52;;;;;;;3.80;3.50;;;12.70;99.90;;;;;;5084956;28;20473;-64
2021/05/06 12:44:43;;;;;;;3.70;3.40;;;12.80;99.90;;;;;;5069747;28;20453;-65
2021/05/06 12:47:26;;;;;;;3.87;3.50;;;12.70;99.90;;;;;;5090136;28;20438;-64
2021/05/06 12:50:15;;;;;;;5.10;3.20;;;13.00;99.90;;;;;;5073172;28;20430;-68
2021/05/06 12:52:45;;;;;;;3.33;3.13;;;13.20;99.90;;;;;;5071494;28;20433;-67
2021/05/06 12:55:29;;;;;;;3.07;2.77;;;12.80;99.90;;;;;;5066614;28;20224;-67
2021/05/06 12:58:15;;;;;;;3.83;3.63;;;12.20;99.90;;;;;;5070722;28;20423;-67
2021/05/06 13:00:43;;;;;;;3.90;3.63;;;12.10;99.90;;;;;;5056687;28;20821;-66
2021/05/06 13:03:10;;;;;;;3.47;3.27;;;12.10;99.90;;;;;;5068614;28;20514;-68
2021/05/06 13:05:42;;;;;;;3.80;3.37;;;12.20;99.90;;;;;;5069701;28;20427;-66
2021/05/06 13:08:08;;;;;;;3.57;3.23;;;12.10;99.90;;;;;;5070670;28;20395;-64
2021/05/06 13:10:36;;;;;;;3.63;3.40;;;12.20;99.90;;;;;;5086661;28;20431;-65
2021/05/06 13:13:03;;;;;;;3.87;3.47;;;12.10;99.90;;;;;;5070467;28;20269;-66
2021/05/06 13:15:29;;;;;;;3.10;2.90;;;11.80;99.90;;;;;;5070108;28;20450;-68
2021/05/06 13:17:57;;;;;;;3.75;2.90;;;11.80;99.90;;;;;;5068736;28;20430;-68
2021/05/06 13:20:28;;;;;;;4.10;3.20;;;11.80;99.90;;;;;;5069622;28;20196;-66
2021/05/06 13:23:04;;;;;;;3.23;2.93;;;11.90;99.90;;;;;;5070315;28;20443;-67
2021/05/06 13:25:48;;;;;;;3.63;3.43;;;11.70;99.90;;;;;;5069950;28;20435;-65
2021/05/06 13:28:38;;;;;;;3.37;3.20;;;11.60;99.90;;;;;;5071413;28;20876;-65
2021/05/06 13:31:25;;;;;;;3.60;2.97;;;11.60;99.90;;;;;;5067794;28;20431;-66
2021/05/06 13:34:24;;;;;;;3.93;3.50;;;11.40;99.90;;;;;;5066744;28;21005;-66
2021/05/06 13:37:05;;;;;;;3.07;2.80;;;11.40;99.90;;;;;;5072145;28;20533;-67
2021/05/06 13:39:32;;;;;;;3.20;3.00;;;11.30;99.90;;;;;;5070812;28;20427;-66
2021/05/06 13:41:58;;;;;;;3.00;2.80;;;11.20;99.90;;;;;;5070481;28;20498;-64
2021/05/06 13:44:25;;;;;;;3.80;3.30;;;11.20;99.90;;;;;;5090944;28;20454;-65
2021/05/06 13:46:54;;;;;;;2.73;2.63;;;11.20;99.90;;;;;;5074963;28;20628;-64
2021/05/06 13:49:24;;;;;;;3.23;3.00;;;11.20;99.90;;;;;;5080808;28;20442;-65
2021/05/06 13:51:51;;;;;;;3.27;3.07;;;11.20;99.90;;;;;;5070248;28;20436;-69
2021/05/06 13:54:18;;;;;;;3.57;3.17;;;11.40;99.90;;;;;;5070216;28;20967;-65
2021/05/06 13:56:43;;;;;;;3.10;2.90;;;11.60;99.90;;;;;;5083758;28;20415;-64
2021/05/06 13:59:10;;;;;;;3.37;3.17;;;11.60;99.90;;;;;;5069752;28;20929;-65
2021/05/06 14:01:35;;;;;;;4.00;3.80;;;11.70;99.90;;;;;;5070120;28;20606;-65
2021/05/06 14:04:01;;;;;;;3.43;3.20;;;11.50;99.90;;;;;;5071394;28;20442;-65
2021/05/06 14:06:27;;;;;;;3.30;3.10;;;11.60;99.90;;;;;;5072869;28;20184;-65
2021/05/06 14:08:52;;;;;;;4.20;3.60;;;11.60;99.90;;;;;;5089015;28;20187;-65
2021/05/06 14:11:18;;;;;;;4.33;3.47;;;11.60;99.90;;;;;;5069542;28;20200;-67
2021/05/06 14:13:44;;;;;;;3.70;3.40;;;11.50;99.90;;;;;;5070206;28;20461;-65
2021/05/06 14:16:10;;;;;;;3.20;3.00;;;11.40;99.90;;;;;;5080404;28;20442;-64
2021/05/06 14:18:36;;;;;;;4.07;3.30;;;11.40;99.90;;;;;;5069888;28;20443;-64
2021/05/06 14:21:03;;;;;;;5.07;3.40;;;11.30;99.90;;;;;;5064335;28;20478;-65
2021/05/06 14:23:39;;;;;;;3.30;3.00;;;11.20;99.90;;;;;;5067899;28;20177;-66
2021/05/06 14:26:04;;;;;;;4.30;4.00;;;11.20;99.90;;;;;;5060219;28;20711;-66
2021/05/06 14:28:30;;;;;;;2.80;2.70;;;11.30;99.90;;;;;;5068834;28;20441;-66
2021/05/06 14:30:56;;;;;;;3.20;3.00;;;11.30;99.90;;;;;;5059025;28;20209;-66
2021/05/06 14:33:21;;;;;;;3.30;3.10;;;11.50;99.90;;;;;;5066221;28;20198;-66
2021/05/06 14:35:48;;;;;;;3.23;3.03;;;11.70;99.90;;;;;;5069175;28;20181;-64
2021/05/06 14:38:14;;;;;;;3.30;3.10;;;11.80;99.90;;;;;;5068693;28;20244;-64
2021/05/06 14:40:40;;;;;;;3.20;3.00;;;11.80;99.90;;;;;;5069803;28;20546;-71
2021/05/06 14:43:07;;;;;;;3.27;2.97;;;12.00;99.90;;;;;;5069320;28;20659;-67
2021/05/06 14:45:33;;;;;;;3.37;3.00;;;12.20;99.90;;;;;;5068687;28;20435;-66
2021/05/06 14:47:59;;;;;;;3.20;3.00;;;12.40;99.90;;;;;;5059588;28;20446;-64
2021/05/06 14:50:24;;;;;;;3.10;2.90;;;12.60;99.90;;;;;;5062962;28;20814;-63
2021/05/06 14:52:54;;;;;;;2.70;2.50;;;12.70;99.90;;;;;;5068179;28;20209;-67
2021/05/06 14:55:21;;;;;;;2.50;2.40;;;12.80;99.90;;;;;;5068380;28;20707;-63
2021/05/06 14:57:48;;;;;;;2.90;2.80;;;12.80;99.90;;;;;;5066545;28;20545;-65
2021/05/06 15:00:14;;;;;;;2.97;2.87;;;13.00;99.90;;;;;;5068511;28;20469;-63
2021/05/06 15:02:41;;;;;;;2.77;2.67;;;13.10;99.90;;;;;;5064784;28;20525;-66
2021/05/06 15:05:07;;;;;;;2.83;2.63;;;13.30;99.90;;;;;;5064403;28;20798;-63
2021/05/06 15:07:34;;;;;;;2.63;2.53;;;13.40;99.90;;;;;;5071358;28;20442;-64
2021/05/06 15:10:00;;;;;;;3.10;2.90;;;13.40;99.90;;;;;;5065613;28;20420;-65
2021/05/06 15:12:26;;;;;;;2.50;2.30;;;13.30;99.90;;;;;;5066656;28;20483;-64
2021/05/06 15:14:52;;;;;;;2.70;2.60;;;13.50;99.90;;;;;;5065391;28;20301;-63
2021/05/06 15:17:18;;;;;;;3.20;3.00;;;13.30;99.90;;;;;;5067767;28;20185;-62
2021/05/06 15:19:44;;;;;;;3.10;2.90;;;13.10;99.90;;;;;;5064056;28;20458;-65
2021/05/06 15:22:10;;;;;;;2.93;2.83;;;13.10;99.90;;;;;;5071929;28;20218;-64
2021/05/06 15:24:35;;;;;;;2.67;2.50;;;13.20;99.90;;;;;;5075762;28;20205;-67
2021/05/06 15:27:01;;;;;;;3.17;2.97;;;13.40;99.90;;;;;;5066014;28;21029;-64
2021/05/06 15:29:26;;;;;;;2.80;2.60;;;13.30;99.90;;;;;;5064484;28;20177;-64
2021/05/06 15:31:53;;;;;;;3.17;2.97;;;13.00;99.90;;;;;;5072571;28;20196;-66
2021/05/06 15:34:19;;;;;;;2.90;2.80;;;12.80;99.90;;;;;;5067674;28;20185;-65
2021/05/06 15:36:45;;;;;;;2.70;2.60;;;12.90;99.90;;;;;;5075386;28;20446;-66
2021/05/06 15:39:12;;;;;;;3.23;2.93;;;13.00;99.90;;;;;;5077403;28;20445;-64
2021/05/06 15:41:38;;;;;;;3.20;3.00;;;12.90;99.90;;;;;;5071196;28;20549;-65
2021/05/06 15:44:04;;;;;;;3.00;2.80;;;12.90;99.90;;;;;;5073456;28;20970;-66
2021/05/06 15:46:33;;;;;;;3.30;3.10;;;12.80;99.90;;;;;;5075939;28;20769;-66
2021/05/06 15:49:00;;;;;;;3.30;3.20;;;12.80;99.90;;;;;;5076368;28;20421;-64
2021/05/06 15:51:26;;;;;;;2.97;2.87;;;12.70;99.90;;;;;;5064908;28;21129;-66
2021/05/06 15:53:51;;;;;;;2.67;2.57;;;12.60;99.90;;;;;;5068010;28;20427;-66
2021/05/06 15:56:17;;;;;;;3.30;3.10;;;12.60;99.90;;;;;;5067944;28;20295;-66
2021/05/06 15:58:43;;;;;;;3.10;2.87;;;12.60;99.90;;;;;;5067024;28;20192;-66
2021/05/06 16:01:09;;;;;;;3.50;3.30;;;12.60;99.90;;;;;;5067957;28;21053;-66
2021/05/06 16:03:44;;;;;;;3.50;3.30;;;12.60;99.90;;;;;;5068202;28;20639;-66
2021/05/06 16:06:10;;;;;;;3.07;2.87;;;12.50;99.90;;;;;;5068427;28;20706;-66
2021/05/06 16:08:36;;;;;;;3.50;3.30;;;12.40;99.90;;;;;;5067058;28;20480;-65
2021/05/06 16:11:02;;;;;;;3.03;2.83;;;12.30;99.90;;;;;;5067669;28;20197;-66
2021/05/06 16:13:27;;;;;;;3.10;2.90;;;12.40;99.90;;;;;;5073832;28;20215;-66
2021/05/06 16:15:53;;;;;;;3.17;2.97;;;12.40;99.90;;;;;;5075656;28;20185;-66
2021/05/06 16:18:21;;;;;;;3.00;2.90;;;12.50;99.90;;;;;;5071173;28;20200;-66
2021/05/06 16:20:47;;;;;;;3.00;2.80;;;12.50;99.90;;;;;;5076762;28;20209;-66
2021/05/06 16:23:13;;;;;;;3.40;2.90;;;12.50;99.90;;;;;;5074376;28;20833;-65